sensor_id;sensor_type;location;lat;lon;timestamp;P1;durP1;ratioP1;P2;durP2;ratioP2
20456;SDS011;10387;51.102;6.848;2024-02-26T01:43:16;1.10;;;1.00;;
20456;SDS011;10387;51.102;6.848;2024-02-26T01:46:07;1.57;;;1.10;;
20456;SDS011;10387;51.102;6.848;2024-02-26T01:49:02;1.50;;;1.20;;
20456;SDS011;10387;51.102;6.848;2024-02-26T01:52:04;1.87;;;1.40;;
20456;SDS011;10387;51.102;6.848;2024-02-26T05:31:08;2.93;;;1.30;;
20456;SDS011;10387;51.102;6.848;2024-02-26T05:34:32;3.40;;;1.80;;
20456;SDS011;10387;51.102;6.848;2024-02-26T05:53:03;1.60;;;1.50;;
20456;SDS011;10387;51.102;6.848;2024-02-26T05:56:32;1.60;;;1.50;;
20456;SDS011;10387;51.102;6.848;2024-02-26T05:59:44;1.73;;;1.60;;
20456;SDS011;10387;51.102;6.848;2024-02-26T06:02:33;1.63;;;1.50;;
20456;SDS011;10387;51.102;6.848;2024-02-26T06:08:36;1.70;;;1.60;;
20456;SDS011;10387;51.102;6.848;2024-02-26T06:11:23;2.00;;;1.70;;
20456;SDS011;10387;51.102;6.848;2024-02-26T06:14:09;1.90;;;1.80;;
20456;SDS011;10387;51.102;6.848;2024-02-26T06:16:58;2.20;;;1.77;;
20456;SDS011;10387;51.102;6.848;2024-02-26T06:19:45;3.13;;;1.80;;
20456;SDS011;10387;51.102;6.848;2024-02-26T06:22:35;2.10;;;1.80;;
20456;SDS011;10387;51.102;6.848;2024-02-26T06:25:23;2.47;;;2.27;;
20456;SDS011;10387;51.102;6.848;2024-02-26T06:28:12;2.90;;;2.07;;
20456;SDS011;10387;51.102;6.848;2024-02-26T06:31:10;2.57;;;2.30;;
20456;SDS011;10387;51.102;6.848;2024-02-26T06:34:00;3.40;;;2.20;;
20456;SDS011;10387;51.102;6.848;2024-02-26T06:36:46;2.53;;;2.33;;
20456;SDS011;10387;51.102;6.848;2024-02-26T06:39:35;2.53;;;2.33;;
20456;SDS011;10387;51.102;6.848;2024-02-26T06:42:23;4.57;;;3.80;;
20456;SDS011;10387;51.102;6.848;2024-02-26T06:45:19;2.87;;;2.67;;
20456;SDS011;10387;51.102;6.848;2024-02-26T06:48:10;4.53;;;2.97;;
20456;SDS011;10387;51.102;6.848;2024-02-26T06:50:57;3.37;;;2.53;;
20456;SDS011;10387;51.102;6.848;2024-02-26T06:53:44;3.20;;;2.90;;
20456;SDS011;10387;51.102;6.848;2024-02-26T06:56:31;5.00;;;3.93;;
20456;SDS011;10387;51.102;6.848;2024-02-26T06:59:18;4.53;;;3.50;;
20456;SDS011;10387;51.102;6.848;2024-02-26T07:02:12;2.80;;;2.60;;
20456;SDS011;10387;51.102;6.848;2024-02-26T07:05:07;3.07;;;2.77;;
20456;SDS011;10387;51.102;6.848;2024-02-26T07:07:55;2.80;;;2.50;;
20456;SDS011;10387;51.102;6.848;2024-02-26T07:10:43;5.33;;;2.80;;
20456;SDS011;10387;51.102;6.848;2024-02-26T07:13:29;2.50;;;2.27;;
20456;SDS011;10387;51.102;6.848;2024-02-26T07:16:19;2.57;;;2.37;;
20456;SDS011;10387;51.102;6.848;2024-02-26T07:19:08;2.70;;;2.07;;
20456;SDS011;10387;51.102;6.848;2024-02-26T07:21:54;3.30;;;3.00;;
20456;SDS011;10387;51.102;6.848;2024-02-26T07:24:41;3.10;;;2.80;;
20456;SDS011;10387;51.102;6.848;2024-02-26T07:27:29;3.73;;;2.50;;
20456;SDS011;10387;51.102;6.848;2024-02-26T07:30:16;3.30;;;2.50;;
20456;SDS011;10387;51.102;6.848;2024-02-26T07:33:06;2.70;;;2.50;;
20456;SDS011;10387;51.102;6.848;2024-02-26T07:35:53;2.83;;;2.53;;
20456;SDS011;10387;51.102;6.848;2024-02-26T07:38:45;2.50;;;2.30;;
20456;SDS011;10387;51.102;6.848;2024-02-26T07:41:32;3.10;;;2.40;;
20456;SDS011;10387;51.102;6.848;2024-02-26T07:44:21;3.00;;;2.73;;
20456;SDS011;10387;51.102;6.848;2024-02-26T07:47:07;3.23;;;2.80;;
20456;SDS011;10387;51.102;6.848;2024-02-26T07:49:54;2.90;;;2.70;;
20456;SDS011;10387;51.102;6.848;2024-02-26T07:52:41;2.83;;;2.53;;
20456;SDS011;10387;51.102;6.848;2024-02-26T07:55:29;3.00;;;2.70;;
20456;SDS011;10387;51.102;6.848;2024-02-26T07:58:17;3.10;;;2.80;;
20456;SDS011;10387;51.102;6.848;2024-02-26T08:01:06;4.33;;;2.90;;
20456;SDS011;10387;51.102;6.848;2024-02-26T08:03:57;2.63;;;2.27;;
20456;SDS011;10387;51.102;6.848;2024-02-26T08:06:46;3.80;;;2.47;;
20456;SDS011;10387;51.102;6.848;2024-02-26T08:09:32;2.93;;;2.43;;
20456;SDS011;10387;51.102;6.848;2024-02-26T08:12:19;4.00;;;2.73;;
20456;SDS011;10387;51.102;6.848;2024-02-26T08:15:06;5.17;;;2.67;;
20456;SDS011;10387;51.102;6.848;2024-02-26T08:18:02;3.37;;;3.00;;
20456;SDS011;10387;51.102;6.848;2024-02-26T08:20:51;3.20;;;2.70;;
20456;SDS011;10387;51.102;6.848;2024-02-26T08:23:38;3.30;;;2.30;;
20456;SDS011;10387;51.102;6.848;2024-02-26T08:26:24;3.23;;;2.70;;
20456;SDS011;10387;51.102;6.848;2024-02-26T08:29:11;2.70;;;2.50;;
20456;SDS011;10387;51.102;6.848;2024-02-26T08:31:57;2.40;;;2.20;;
20456;SDS011;10387;51.102;6.848;2024-02-26T08:34:52;2.33;;;2.13;;
20456;SDS011;10387;51.102;6.848;2024-02-26T08:37:43;2.77;;;2.43;;
20456;SDS011;10387;51.102;6.848;2024-02-26T08:40:35;2.70;;;2.27;;
20456;SDS011;10387;51.102;6.848;2024-02-26T08:43:21;2.80;;;2.33;;
20456;SDS011;10387;51.102;6.848;2024-02-26T08:46:09;3.40;;;2.10;;
20456;SDS011;10387;51.102;6.848;2024-02-26T08:48:57;2.60;;;2.40;;
20456;SDS011;10387;51.102;6.848;2024-02-26T08:55:04;2.33;;;1.87;;
20456;SDS011;10387;51.102;6.848;2024-02-26T09:01:31;2.30;;;2.10;;
20456;SDS011;10387;51.102;6.848;2024-02-26T09:04:21;2.30;;;2.10;;
20456;SDS011;10387;51.102;6.848;2024-02-26T09:24:50;2.60;;;2.40;;
20456;SDS011;10387;51.102;6.848;2024-02-26T09:27:41;2.20;;;2.00;;
20456;SDS011;10387;51.102;6.848;2024-02-26T09:33:52;2.87;;;2.03;;
20456;SDS011;10387;51.102;6.848;2024-02-26T09:36:53;2.97;;;2.27;;
20456;SDS011;10387;51.102;6.848;2024-02-26T09:39:46;2.33;;;2.20;;
20456;SDS011;10387;51.102;6.848;2024-02-26T09:42:53;3.10;;;2.77;;
20456;SDS011;10387;51.102;6.848;2024-02-26T09:45:51;2.23;;;2.03;;
20456;SDS011;10387;51.102;6.848;2024-02-26T09:48:44;2.37;;;2.03;;
20456;SDS011;10387;51.102;6.848;2024-02-26T09:51:34;2.43;;;2.20;;
20456;SDS011;10387;51.102;6.848;2024-02-26T09:54:30;2.23;;;2.03;;
20456;SDS011;10387;51.102;6.848;2024-02-26T09:57:51;2.93;;;2.00;;
20456;SDS011;10387;51.102;6.848;2024-02-26T10:01:29;3.03;;;2.30;;
20456;SDS011;10387;51.102;6.848;2024-02-26T10:11:18;3.00;;;2.30;;
20456;SDS011;10387;51.102;6.848;2024-02-26T10:14:18;2.53;;;2.20;;
20456;SDS011;10387;51.102;6.848;2024-02-26T10:17:12;5.20;;;2.30;;
20456;SDS011;10387;51.102;6.848;2024-02-26T10:27:37;3.10;;;2.07;;
20456;SDS011;10387;51.102;6.848;2024-02-26T10:35:05;4.33;;;3.27;;
20456;SDS011;10387;51.102;6.848;2024-02-26T10:38:19;3.80;;;2.40;;
20456;SDS011;10387;51.102;6.848;2024-02-26T11:06:58;2.67;;;2.43;;
20456;SDS011;10387;51.102;6.848;2024-02-26T11:17:47;2.80;;;2.60;;
20456;SDS011;10387;51.102;6.848;2024-02-26T12:19:28;5.77;;;5.10;;
20456;SDS011;10387;51.102;6.848;2024-02-26T13:22:38;9.67;;;8.03;;
20456;SDS011;10387;51.102;6.848;2024-02-26T13:32:50;12.00;;;9.00;;
20456;SDS011;10387;51.102;6.848;2024-02-26T13:36:18;12.57;;;9.10;;
20456;SDS011;10387;51.102;6.848;2024-02-26T13:39:20;14.40;;;10.67;;
20456;SDS011;10387;51.102;6.848;2024-02-26T14:25:16;22.47;;;16.07;;
20456;SDS011;10387;51.102;6.848;2024-02-26T14:40:16;21.17;;;15.50;;
20456;SDS011;10387;51.102;6.848;2024-02-26T15:03:15;21.23;;;16.33;;
20456;SDS011;10387;51.102;6.848;2024-02-26T15:06:54;20.77;;;15.77;;
20456;SDS011;10387;51.102;6.848;2024-02-26T15:10:31;19.93;;;14.50;;
20456;SDS011;10387;51.102;6.848;2024-02-26T15:21:12;17.23;;;13.27;;
20456;SDS011;10387;51.102;6.848;2024-02-26T15:32:58;16.57;;;13.00;;
20456;SDS011;10387;51.102;6.848;2024-02-26T15:40:44;13.13;;;11.33;;
20456;SDS011;10387;51.102;6.848;2024-02-26T15:43:57;14.17;;;10.73;;
20456;SDS011;10387;51.102;6.848;2024-02-26T15:46:46;11.53;;;9.90;;
20456;SDS011;10387;51.102;6.848;2024-02-26T15:58:50;11.67;;;9.00;;
20456;SDS011;10387;51.102;6.848;2024-02-26T16:02:56;12.27;;;9.47;;
20456;SDS011;10387;51.102;6.848;2024-02-26T16:17:38;11.73;;;9.30;;
20456;SDS011;10387;51.102;6.848;2024-02-26T16:20:36;12.20;;;9.13;;
20456;SDS011;10387;51.102;6.848;2024-02-26T16:23:28;11.57;;;9.90;;
20456;SDS011;10387;51.102;6.848;2024-02-26T16:26:18;12.97;;;10.33;;
20456;SDS011;10387;51.102;6.848;2024-02-26T16:33:13;10.57;;;9.33;;
20456;SDS011;10387;51.102;6.848;2024-02-26T16:48:06;9.73;;;7.70;;
20456;SDS011;10387;51.102;6.848;2024-02-26T17:55:17;6.87;;;5.60;;
20456;SDS011;10387;51.102;6.848;2024-02-26T17:58:05;7.80;;;5.27;;
20456;SDS011;10387;51.102;6.848;2024-02-26T18:00:52;6.23;;;5.53;;
20456;SDS011;10387;51.102;6.848;2024-02-26T18:03:40;6.43;;;5.67;;
20456;SDS011;10387;51.102;6.848;2024-02-26T18:06:27;6.33;;;5.73;;
20456;SDS011;10387;51.102;6.848;2024-02-26T18:09:17;7.00;;;5.60;;
20456;SDS011;10387;51.102;6.848;2024-02-26T18:12:03;7.67;;;6.17;;
20456;SDS011;10387;51.102;6.848;2024-02-26T18:14:50;5.73;;;5.13;;
20456;SDS011;10387;51.102;6.848;2024-02-26T18:17:39;7.50;;;5.50;;
20456;SDS011;10387;51.102;6.848;2024-02-26T18:20:29;9.67;;;6.33;;
20456;SDS011;10387;51.102;6.848;2024-02-26T18:23:16;6.53;;;5.93;;
20456;SDS011;10387;51.102;6.848;2024-02-26T18:26:03;7.37;;;6.23;;
20456;SDS011;10387;51.102;6.848;2024-02-26T18:28:50;6.90;;;6.30;;
20456;SDS011;10387;51.102;6.848;2024-02-26T18:31:37;6.93;;;6.03;;
20456;SDS011;10387;51.102;6.848;2024-02-26T18:34:23;7.07;;;6.40;;
20456;SDS011;10387;51.102;6.848;2024-02-26T18:37:11;7.63;;;6.47;;
20456;SDS011;10387;51.102;6.848;2024-02-26T18:39:57;8.17;;;6.30;;
20456;SDS011;10387;51.102;6.848;2024-02-26T18:42:43;8.20;;;6.43;;
20456;SDS011;10387;51.102;6.848;2024-02-26T18:45:31;6.90;;;6.20;;
20456;SDS011;10387;51.102;6.848;2024-02-26T22:54:28;22.17;;;15.83;;
